Time;durP1;ratioP1;P1;durP2;ratioP2;P2;SDS_P1;SDS_P2;PMS_P1;PMS_P2;Temp;Humidity;BMP_temperature;BMP_pressure;BME280_temperature;BME280_humidity;BME280_pressure;Samples;Min_cycle;Max_cycle;Signal;HPM_P1;HPM_P2
2023/05/04 00:00:27;;;;;;;;;;;;;;;;;;5175886;27;1771;-38
2023/05/04 00:02:55;;;;;;;;;;;;;;;;;;5176197;27;2120;-39
2023/05/04 00:05:22;;;;;;;;;;;;;;;;;;5176464;27;2105;-40
2023/05/04 00:07:50;;;;;;;;;;;;;;;;;;5176263;27;1721;-39
2023/05/04 00:10:17;;;;;;;;;;;;;;;;;;5175673;27;2004;-44
2023/05/04 00:12:45;;;;;;;;;;;;;;;;;;5176117;27;1964;-44
2023/05/04 00:15:12;;;;;;;;;;;;;;;;;;5176169;27;2033;-41
2023/05/04 00:17:41;;;;;;;;;;;;;;;;;;5175928;27;1972;-41
2023/05/04 00:20:09;;;;;;;;;;;;;;;;;;5175937;27;2055;-43
2023/05/04 00:22:36;;;;;;;;;;;;;;;;;;5175934;27;2148;-40
2023/05/04 00:25:03;;;;;;;;;;;;;;;;;;5175844;27;2089;-39
2023/05/04 00:27:30;;;;;;;;;;;;;;;;;;5176008;27;1985;-39
2023/05/04 00:29:57;;;;;;;;;;;;;;;;;;5157042;27;1933;-39
2023/05/04 00:32:26;;;;;;;;;;;;;;;;;;5175353;27;1923;-48
2023/05/04 00:34:53;;;;;;;;;;;;;;;;;;5175283;27;2142;-39
2023/05/04 00:37:22;;;;;;;;;;;;;;;;;;5175742;27;2049;-41
2023/05/04 00:39:49;;;;;;;;;;;;;;;;;;5175903;27;1936;-37
2023/05/04 00:42:17;;;;;;;;;;;;;;;;;;5175591;27;1908;-41
2023/05/04 00:44:44;;;;;;;;;;;;;;;;;;5175464;27;2038;-47
2023/05/04 00:47:12;;;;;;;;;;;;;;;;;;5175486;27;2161;-38
2023/05/04 00:49:39;;;;;;;;;;;;;;;;;;5172912;27;1945;-39
2023/05/04 00:52:08;;;;;;;;;;;;;;;;;;5154396;27;1880;-39
2023/05/04 00:54:35;;;;;;;;;;;;;;;;;;5153986;27;2010;-40
2023/05/04 00:57:02;;;;;;;;;;;;;;;;;;5154238;27;1985;-39
2023/05/04 00:59:29;;;;;;;;;;;;;;;;;;5153976;27;1979;-39
2023/05/04 01:01:56;;;;;;;;;;;;;;;;;;5154515;27;1953;-39
2023/05/04 01:04:23;;;;;;;;;;;;;;;;;;5154169;27;2022;-46
2023/05/04 01:06:57;;;;;;;;;;;;;;;;;;5154320;27;2025;-41
2023/05/04 01:09:40;;;;;;;;;;;;;;;;;;5154396;27;1941;-40
2023/05/04 01:12:26;;;;;;;;;;;;;;;;;;5154125;27;2138;-40
2023/05/04 01:14:54;;;;;;;;;;;;;;;;;;5154367;27;2040;-40
2023/05/04 01:17:22;;;;;;;;;;;;;;;;;;5135453;27;1973;-39
2023/05/04 01:19:52;;;;;;;;;;;;;;;;;;5153969;27;1979;-39
2023/05/04 01:22:20;;;;;;;;;;;;;;;;;;5153670;27;2089;-45
2023/05/04 01:24:48;;;;;;;;;;;;;;;;;;5153879;27;1934;-39
2023/05/04 01:27:22;;;;;;;;;;;;;;;;;;5153544;27;1982;-39
2023/05/04 01:30:01;;;;;;;;;;;;;;;;;;5135024;27;2054;-38
2023/05/04 01:32:30;;;;;;;;;;;;;;;;;;5135038;27;1892;-39
2023/05/04 01:34:58;;;;;;;;;;;;;;;;;;5153707;27;1989;-42
2023/05/04 01:37:25;;;;;;;;;;;;;;;;;;5153586;27;2018;-38
2023/05/04 01:39:52;;;;;;;;;;;;;;;;;;5134909;27;2012;-40
2023/05/04 01:42:20;;;;;;;;;;;;;;;;;;5153492;27;1905;-40
2023/05/04 01:44:47;;;;;;;;;;;;;;;;;;5134629;27;2095;-39
2023/05/04 01:47:16;;;;;;;;;;;;;;;;;;5153305;27;1929;-40
2023/05/04 01:49:43;;;;;;;;;;;;;;;;;;5153240;27;1799;-39
2023/05/04 01:52:10;;;;;;;;;;;;;;;;;;5153109;27;2097;-51
2023/05/04 01:54:37;;;;;;;;;;;;;;;;;;5168048;27;1558;-51
2023/05/04 01:57:04;;;;;;;;;;;;;;;;;;5173800;27;2234;-43
2023/05/04 01:59:32;;;;;;;;;;;;;;;;;;5155302;27;1969;-45
2023/05/04 02:01:59;;;;;;;;;;;;;;;;;;5173807;27;1817;-39
2023/05/04 02:04:26;;;;;;;;;;;;;;;;;;5155476;27;2015;-41
2023/05/04 02:06:54;;;;;;;;;;;;;;;;;;5173860;27;1924;-43
2023/05/04 02:09:21;;;;;;;;;;;;;;;;;;5173504;27;2437;-52
2023/05/04 02:11:48;;;;;;;;;;;;;;;;;;5155009;27;1965;-44
2023/05/04 02:14:16;;;;;;;;;;;;;;;;;;5155146;27;1703;-40
2023/05/04 02:16:43;;;;;;;;;;;;;;;;;;5173493;27;1935;-39
2023/05/04 02:19:11;;;;;;;;;;;;;;;;;;5173941;27;1835;-39
2023/05/04 02:21:39;;;;;;;;;;;;;;;;;;5173744;27;2118;-48
2023/05/04 02:24:07;;;;;;;;;;;;;;;;;;5173612;27;2005;-48
2023/05/04 02:26:35;;;;;;;;;;;;;;;;;;5173971;27;2028;-47
2023/05/04 02:29:02;;;;;;;;;;;;;;;;;;5166442;27;1969;-48
2023/05/04 02:31:29;;;;;;;;;;;;;;;;;;5153031;27;2002;-47
2023/05/04 02:33:59;;;;;;;;;;;;;;;;;;5152818;27;2021;-47
2023/05/04 02:36:26;;;;;;;;;;;;;;;;;;5152933;27;1978;-50
2023/05/04 02:38:54;;;;;;;;;;;;;;;;;;5152570;27;1879;-48
2023/05/04 02:41:24;;;;;;;;;;;;;;;;;;5133785;27;2190;-48
2023/05/04 02:43:51;;;;;;;;;;;;;;;;;;5152790;27;2061;-48
2023/05/04 02:46:22;;;;;;;;;;;;;;;;;;5152793;27;1947;-49
2023/05/04 02:48:50;;;;;;;;;;;;;;;;;;5152566;27;2044;-44
2023/05/04 02:51:17;;;;;;;;;;;;;;;;;;5117125;27;1954;-47
2023/05/04 02:53:44;;;;;;;;;;;;;;;;;;5140885;27;1985;-51
2023/05/04 02:56:12;;;;;;;;;;;;;;;;;;5174157;27;1936;-47
2023/05/04 02:58:40;;;;;;;;;;;;;;;;;;5158549;27;2241;-51
2023/05/04 03:01:07;;;;;;;;;;;;;;;;;;5177441;27;1964;-49
2023/05/04 03:03:34;;;;;;;;;;;;;;;;;;5177487;27;1908;-50
2023/05/04 03:06:01;;;;;;;;;;;;;;;;;;5177472;27;2040;-45
2023/05/04 03:08:29;;;;;;;;;;;;;;;;;;5177567;27;1898;-49
2023/05/04 03:10:56;;;;;;;;;;;;;;;;;;5176969;27;1882;-44
2023/05/04 03:13:24;;;;;;;;;;;;;;;;;;5177373;27;2040;-44
2023/05/04 03:15:51;;;;;;;;;;;;;;;;;;5177192;27;2027;-40
2023/05/04 03:18:18;;;;;;;;;;;;;;;;;;5177000;27;1938;-39
2023/05/04 03:20:47;;;;;;;;;;;;;;;;;;5158308;27;2073;-39
2023/05/04 03:23:18;;;;;;;;;;;;;;;;;;5158163;27;1856;-39
2023/05/04 03:25:46;;;;;;;;;;;;;;;;;;5151693;27;2059;-47
2023/05/04 03:28:13;;;;;;;;;;;;;;;;;;5137724;27;1942;-40
2023/05/04 03:30:41;;;;;;;;;;;;;;;;;;5137367;27;1983;-40
2023/05/04 03:33:08;;;;;;;;;;;;;;;;;;5155811;27;2041;-45
2023/05/04 03:35:36;;;;;;;;;;;;;;;;;;5155938;27;1916;-44
2023/05/04 03:38:05;;;;;;;;;;;;;;;;;;5155650;27;2065;-40
2023/05/04 03:40:33;;;;;;;;;;;;;;;;;;5156114;27;1910;-51
2023/05/04 03:43:00;;;;;;;;;;;;;;;;;;5156109;27;2006;-40
2023/05/04 03:45:28;;;;;;;;;;;;;;;;;;5137267;27;2230;-39
2023/05/04 03:47:56;;;;;;;;;;;;;;;;;;5137050;27;1799;-39
2023/05/04 03:50:25;;;;;;;;;;;;;;;;;;5155421;27;1953;-39
2023/05/04 03:52:52;;;;;;;;;;;;;;;;;;5155373;27;1947;-48
2023/05/04 03:55:25;;;;;;;;;;;;;;;;;;5134878;27;1943;-38
2023/05/04 03:57:52;;;;;;;;;;;;;;;;;;5116235;27;1920;-40
2023/05/04 04:00:20;;;;;;;;;;;;;;;;;;5133344;27;1754;-39
2023/05/04 04:02:58;;;;;;;;;;;;;;;;;;5133240;27;1969;-47
2023/05/04 04:05:25;;;;;;;;;;;;;;;;;;5116246;27;1697;-39
2023/05/04 04:07:53;;;;;;;;;;;;;;;;;;5131741;27;2063;-39
2023/05/04 04:10:20;;;;;;;;;;;;;;;;;;5134604;27;2152;-45
2023/05/04 04:12:47;;;;;;;;;;;;;;;;;;5134443;27;1952;-40
2023/05/04 04:15:14;;;;;;;;;;;;;;;;;;5134383;27;2182;-39
2023/05/04 04:17:41;;;;;;;;;;;;;;;;;;5134498;27;2009;-42
2023/05/04 04:20:09;;;;;;;;;;;;;;;;;;5134458;27;1859;-39
2023/05/04 04:22:36;;;;;;;;;;;;;;;;;;5134355;27;2039;-44
2023/05/04 04:25:03;;;;;;;;;;;;;;;;;;5116303;27;1890;-46
2023/05/04 04:27:30;;;;;;;;;;;;;;;;;;5134349;27;2020;-39
2023/05/04 04:29:57;;;;;;;;;;;;;;;;;;5134120;27;2071;-44
2023/05/04 04:32:24;;;;;;;;;;;;;;;;;;5134154;27;2131;-40
2023/05/04 04:34:51;;;;;;;;;;;;;;;;;;5133962;27;2050;-39
2023/05/04 04:37:18;;;;;;;;;;;;;;;;;;5134129;27;2120;-43
2023/05/04 04:39:46;;;;;;;;;;;;;;;;;;5133932;27;1985;-39
2023/05/04 04:42:13;;;;;;;;;;;;;;;;;;5133797;27;2154;-40
2023/05/04 04:44:40;;;;;;;;;;;;;;;;;;5133918;27;1916;-39
2023/05/04 04:47:07;;;;;;;;;;;;;;;;;;5133917;27;2046;-46
2023/05/04 04:49:34;;;;;;;;;;;;;;;;;;5133752;27;2149;-40
2023/05/04 04:52:01;;;;;;;;;;;;;;;;;;5133815;27;1794;-41
2023/05/04 04:54:28;;;;;;;;;;;;;;;;;;5160294;27;2035;-43
2023/05/04 04:56:55;;;;;;;;;;;;;;;;;;5175285;27;1915;-40
2023/05/04 04:59:23;;;;;;;;;;;;;;;;;;5175297;27;1941;-47
2023/05/04 05:01:50;;;;;;;;;;;;;;;;;;5175315;27;1958;-50
2023/05/04 05:04:18;;;;;;;;;;;;;;;;;;5175231;27;1956;-40
2023/05/04 05:06:46;;;;;;;;;;;;;;;;;;5174918;27;2102;-39
2023/05/04 05:09:13;;;;;;;;;;;;;;;;;;5175155;27;2012;-40
2023/05/04 05:11:40;;;;;;;;;;;;;;;;;;5174895;27;1918;-38
2023/05/04 05:14:08;;;;;;;;;;;;;;;;;;5175239;27;1985;-38
2023/05/04 05:16:35;;;;;;;;;;;;;;;;;;5175008;27;2088;-40
2023/05/04 05:19:02;;;;;;;;;;;;;;;;;;5174159;27;2033;-39
2023/05/04 05:21:29;;;;;;;;;;;;;;;;;;5174889;27;1936;-40
2023/05/04 05:23:56;;;;;;;;;;;;;;;;;;5174768;27;1885;-39
2023/05/04 05:26:23;;;;;;;;;;;;;;;;;;5174653;27;1858;-40
2023/05/04 05:28:50;;;;;;;;;;;;;;;;;;5174611;27;1899;-40
2023/05/04 05:31:17;;;;;;;;;;;;;;;;;;5174398;27;1829;-39
2023/05/04 05:33:45;;;;;;;;;;;;;;;;;;5174654;27;1865;-39
2023/05/04 05:36:13;;;;;;;;;;;;;;;;;;5174678;27;1832;-39
2023/05/04 05:38:40;;;;;;;;;;;;;;;;;;5174058;27;1943;-38
2023/05/04 05:41:08;;;;;;;;;;;;;;;;;;5174950;27;1971;-40
2023/05/04 05:43:37;;;;;;;;;;;;;;;;;;5174203;27;2314;-39
2023/05/04 05:46:05;;;;;;;;;;;;;;;;;;5174464;27;1934;-40
2023/05/04 05:48:33;;;;;;;;;;;;;;;;;;5174277;27;2220;-40
2023/05/04 05:51:00;;;;;;;;;;;;;;;;;;5173912;27;2020;-40
2023/05/04 05:53:28;;;;;;;;;;;;;;;;;;5169073;27;2040;-39
2023/05/04 05:55:55;;;;;;;;;;;;;;;;;;5153346;27;1997;-42
2023/05/04 05:58:22;;;;;;;;;;;;;;;;;;5153042;27;2010;-40
2023/05/04 06:00:49;;;;;;;;;;;;;;;;;;5153089;27;2136;-40
2023/05/04 06:03:16;;;;;;;;;;;;;;;;;;5153081;27;1867;-41
2023/05/04 06:05:44;;;;;;;;;;;;;;;;;;5153299;27;1980;-45
2023/05/04 06:08:12;;;;;;;;;;;;;;;;;;5153173;27;2110;-40
2023/05/04 06:10:39;;;;;;;;;;;;;;;;;;5152958;27;1929;-40
2023/05/04 06:13:06;;;;;;;;;;;;;;;;;;5153003;27;2003;-50
2023/05/04 06:15:34;;;;;;;;;;;;;;;;;;5152651;27;2040;-48
2023/05/04 06:18:01;;;;;;;;;;;;;;;;;;5152756;27;1917;-52
2023/05/04 06:20:28;;;;;;;;;;;;;;;;;;5152557;27;1994;-39
2023/05/04 06:22:56;;;;;;;;;;;;;;;;;;5153129;27;2095;-41
2023/05/04 06:25:23;;;;;;;;;;;;;;;;;;5153029;27;1837;-40
2023/05/04 06:27:50;;;;;;;;;;;;;;;;;;5152882;27;2016;-39
2023/05/04 06:30:17;;;;;;;;;;;;;;;;;;5152620;27;1830;-40
2023/05/04 06:32:45;;;;;;;;;;;;;;;;;;5152392;27;2012;-47
2023/05/04 06:35:12;;;;;;;;;;;;;;;;;;5153087;27;1929;-39
2023/05/04 06:37:40;;;;;;;;;;;;;;;;;;5152726;27;1982;-38
2023/05/04 06:40:07;;;;;;;;;;;;;;;;;;5152605;27;1984;-45
2023/05/04 06:42:35;;;;;;;;;;;;;;;;;;5152642;27;2042;-39
2023/05/04 06:45:02;;;;;;;;;;;;;;;;;;5152779;27;2176;-40
2023/05/04 06:47:30;;;;;;;;;;;;;;;;;;5152570;27;1885;-39
2023/05/04 06:49:57;;;;;;;;;;;;;;;;;;5152458;27;1928;-41
2023/05/04 06:52:24;;;;;;;;;;;;;;;;;;5152281;27;2276;-46
2023/05/04 06:54:51;;;;;;;;;;;;;;;;;;5169239;27;2203;-39
2023/05/04 06:57:18;;;;;;;;;;;;;;;;;;5173313;27;1992;-40
2023/05/04 06:59:45;;;;;;;;;;;;;;;;;;5173954;27;2228;-39
2023/05/04 07:02:13;;;;;;;;;;;;;;;;;;5173569;27;2468;-39
2023/05/04 07:04:40;;;;;;;;;;;;;;;;;;5173228;27;1887;-39
2023/05/04 07:07:07;;;;;;;;;;;;;;;;;;5173408;27;2027;-40
2023/05/04 07:09:34;;;;;;;;;;;;;;;;;;5173384;27;2106;-39
2023/05/04 07:12:03;;;;;;;;;;;;;;;;;;5173072;27;1946;-43
2023/05/04 07:14:30;;;;;;;;;;;;;;;;;;5173075;27;1951;-51
2023/05/04 07:16:58;;;;;;;;;;;;;;;;;;5173176;27;1814;-39
2023/05/04 07:19:26;;;;;;;;;;;;;;;;;;5173268;27;2370;-40
2023/05/04 07:21:53;;;;;;;;;;;;;;;;;;5172929;27;1920;-39
2023/05/04 07:24:20;;;;;;;;;;;;;;;;;;5172996;27;2128;-39
2023/05/04 07:26:47;;;;;;;;;;;;;;;;;;5172385;27;2292;-43
2023/05/04 07:29:14;;;;;;;;;;;;;;;;;;5133553;27;2283;-38
2023/05/04 07:31:42;;;;;;;;;;;;;;;;;;5152333;27;1961;-38
2023/05/04 07:34:09;;;;;;;;;;;;;;;;;;5152145;27;1835;-41
2023/05/04 07:36:36;;;;;;;;;;;;;;;;;;5152058;27;2056;-41
2023/05/04 07:39:03;;;;;;;;;;;;;;;;;;5152070;27;2182;-40
2023/05/04 07:41:31;;;;;;;;;;;;;;;;;;5151866;27;2214;-40
2023/05/04 07:43:58;;;;;;;;;;;;;;;;;;5155706;27;2155;-39
2023/05/04 07:46:26;;;;;;;;;;;;;;;;;;5155925;27;1902;-40
2023/05/04 07:48:53;;;;;;;;;;;;;;;;;;5155576;27;2057;-39
2023/05/04 07:51:20;;;;;;;;;;;;;;;;;;5155910;27;1937;-39
2023/05/04 07:53:47;;;;;;;;;;;;;;;;;;5162840;27;1933;-40
2023/05/04 07:56:16;;;;;;;;;;;;;;;;;;5176545;27;1839;-39
2023/05/04 07:58:44;;;;;;;;;;;;;;;;;;5158036;27;2065;-39
2023/05/04 08:01:11;;;;;;;;;;;;;;;;;;5176582;27;1877;-38
2023/05/04 08:03:39;;;;;;;;;;;;;;;;;;5176555;27;2017;-39
2023/05/04 08:06:06;;;;;;;;;;;;;;;;;;5176300;27;2143;-39
2023/05/04 08:08:33;;;;;;;;;;;;;;;;;;5176131;27;2041;-40
2023/05/04 08:11:00;;;;;;;;;;;;;;;;;;5176220;27;1921;-40
2023/05/04 08:13:44;;;;;;;;;;;;;;;;;;5176424;27;2196;-40
2023/05/04 08:16:11;;;;;;;;;;;;;;;;;;5176207;27;1783;-40
2023/05/04 08:18:38;;;;;;;;;;;;;;;;;;5175940;27;2094;-44
2023/05/04 08:21:05;;;;;;;;;;;;;;;;;;5175738;27;1899;-41
2023/05/04 08:23:32;;;;;;;;;;;;;;;;;;5176011;27;2109;-40
2023/05/04 08:26:03;;;;;;;;;;;;;;;;;;5176067;27;1791;-43
2023/05/04 08:28:34;;;;;;;;;;;;;;;;;;5175920;27;1912;-41
2023/05/04 08:31:02;;;;;;;;;;;;;;;;;;5175775;27;2073;-40
2023/05/04 08:33:29;;;;;;;;;;;;;;;;;;5175647;27;1843;-40
2023/05/04 08:35:56;;;;;;;;;;;;;;;;;;5176123;27;1936;-49
2023/05/04 08:38:23;;;;;;;;;;;;;;;;;;5176009;27;1916;-43
2023/05/04 08:40:51;;;;;;;;;;;;;;;;;;5175684;27;1766;-39
2023/05/04 08:43:18;;;;;;;;;;;;;;;;;;5175614;27;1931;-41
2023/05/04 08:45:45;;;;;;;;;;;;;;;;;;5157548;27;1930;-42
2023/05/04 08:48:12;;;;;;;;;;;;;;;;;;5175453;27;1952;-40
2023/05/04 08:50:41;;;;;;;;;;;;;;;;;;5175785;27;1990;-39
2023/05/04 08:53:10;;;;;;;;;;;;;;;;;;5173031;27;2011;-47
2023/05/04 08:55:38;;;;;;;;;;;;;;;;;;5153873;27;2251;-41
2023/05/04 08:58:09;;;;;;;;;;;;;;;;;;5154410;27;2086;-39
2023/05/04 09:00:37;;;;;;;;;;;;;;;;;;5154456;27;2078;-40
2023/05/04 09:03:05;;;;;;;;;;;;;;;;;;5154473;27;1970;-40
2023/05/04 09:05:33;;;;;;;;;;;;;;;;;;5153886;27;1919;-41
2023/05/04 09:08:00;;;;;;;;;;;;;;;;;;5154209;27;1933;-39
2023/05/04 09:10:27;;;;;;;;;;;;;;;;;;5154076;27;1855;-37
2023/05/04 09:12:56;;;;;;;;;;;;;;;;;;5153935;27;2233;-40
2023/05/04 09:15:23;;;;;;;;;;;;;;;;;;5153992;27;1986;-37
2023/05/04 09:18:00;;;;;;;;;;;;;;;;;;5153662;27;1850;-41
2023/05/04 09:20:28;;;;;;;;;;;;;;;;;;5153861;27;2020;-45
2023/05/04 09:23:03;;;;;;;;;;;;;;;;;;5154486;27;2191;-45
2023/05/04 09:25:30;;;;;;;;;;;;;;;;;;5153620;27;1936;-41
2023/05/04 09:27:57;;;;;;;;;;;;;;;;;;5153702;27;1872;-39
2023/05/04 09:30:25;;;;;;;;;;;;;;;;;;5153670;27;2090;-46
2023/05/04 09:32:52;;;;;;;;;;;;;;;;;;5153872;27;1895;-51
2023/05/04 09:35:27;;;;;;;;;;;;;;;;;;5153623;27;1704;-47
2023/05/04 09:37:59;;;;;;;;;;;;;;;;;;5153410;27;2073;-40
2023/05/04 09:40:36;;;;;;;;;;;;;;;;;;5153394;27;1988;-40
2023/05/04 09:43:05;;;;;;;;;;;;;;;;;;5153386;27;2038;-40
2023/05/04 09:45:39;;;;;;;;;;;;;;;;;;5153597;27;1994;-44
2023/05/04 09:48:27;;;;;;;;;;;;;;;;;;5153638;27;1984;-49
2023/05/04 09:50:56;;;;;;;;;;;;;;;;;;5153360;27;2147;-40
2023/05/04 09:53:24;;;;;;;;;;;;;;;;;;5157143;27;2008;-50
2023/05/04 09:56:06;;;;;;;;;;;;;;;;;;5174580;27;2030;-39
2023/05/04 09:58:35;;;;;;;;;;;;;;;;;;5173978;27;1964;-39
2023/05/04 10:01:02;;;;;;;;;;;;;;;;;;5173967;27;2002;-40
2023/05/04 10:03:30;;;;;;;;;;;;;;;;;;5173701;27;2075;-39
2023/05/04 10:05:58;;;;;;;;;;;;;;;;;;5174377;27;1875;-45
2023/05/04 10:08:26;;;;;;;;;;;;;;;;;;5174026;27;2013;-40
2023/05/04 10:10:53;;;;;;;;;;;;;;;;;;5174092;27;1957;-46
2023/05/04 10:13:20;;;;;;;;;;;;;;;;;;5173783;27;1814;-39
2023/05/04 10:15:53;;;;;;;;;;;;;;;;;;5173702;27;2031;-40
2023/05/04 10:18:29;;;;;;;;;;;;;;;;;;5173915;27;2171;-40
2023/05/04 10:21:14;;;;;;;;;;;;;;;;;;5174152;27;2119;-40
2023/05/04 10:24:01;;;;;;;;;;;;;;;;;;5173758;27;1396;-41
2023/05/04 10:26:52;;;;;;;;;;;;;;;;;;5173783;27;2238;-40
2023/05/04 10:29:21;;;;;;;;;;;;;;;;;;5173757;27;1916;-41
2023/05/04 10:31:49;;;;;;;;;;;;;;;;;;5173699;27;1827;-50
2023/05/04 10:34:24;;;;;;;;;;;;;;;;;;5173574;27;1995;-40
2023/05/04 10:36:51;;;;;;;;;;;;;;;;;;5173527;27;1975;-45
2023/05/04 10:39:19;;;;;;;;;;;;;;;;;;5173346;27;1970;-47
2023/05/04 10:41:58;;;;;;;;;;;;;;;;;;5173529;27;1979;-45
2023/05/04 10:44:25;;;;;;;;;;;;;;;;;;5173650;27;1990;-53
2023/05/04 10:46:56;;;;;;;;;;;;;;;;;;5173205;27;1963;-43
2023/05/04 10:49:25;;;;;;;;;;;;;;;;;;5173327;27;2041;-43
2023/05/04 10:52:11;;;;;;;;;;;;;;;;;;5173335;27;2257;-39
2023/05/04 10:54:39;;;;;;;;;;;;;;;;;;5158471;27;1893;-40
2023/05/04 10:57:11;;;;;;;;;;;;;;;;;;5152822;27;1792;-39
2023/05/04 10:59:38;;;;;;;;;;;;;;;;;;5152400;27;2054;-44
2023/05/04 11:02:06;;;;;;;;;;;;;;;;;;5152654;27;2047;-40
2023/05/04 11:04:34;;;;;;;;;;;;;;;;;;5152616;27;1849;-40
2023/05/04 11:07:03;;;;;;;;;;;;;;;;;;5152695;27;2207;-39
2023/05/04 11:09:35;;;;;;;;;;;;;;;;;;5152724;27;1469;-51
2023/05/04 11:12:02;;;;;;;;;;;;;;;;;;5152353;27;1886;-40
2023/05/04 11:14:29;;;;;;;;;;;;;;;;;;5152470;27;2062;-40
2023/05/04 11:17:06;;;;;;;;;;;;;;;;;;5152659;27;1906;-42
2023/05/04 11:19:52;;;;;;;;;;;;;;;;;;5156344;27;2297;-40
2023/05/04 11:22:19;;;;;;;;;;;;;;;;;;5156311;27;2211;-42
2023/05/04 11:24:49;;;;;;;;;;;;;;;;;;5138246;27;2214;-41
2023/05/04 11:27:21;;;;;;;;;;;;;;;;;;5156318;27;1697;-45
2023/05/04 11:29:55;;;;;;;;;;;;;;;;;;5156105;27;2033;-39
2023/05/04 11:32:32;;;;;;;;;;;;;;;;;;5156256;27;2121;-44
2023/05/04 11:35:00;;;;;;;;;;;;;;;;;;5155827;27;1888;-40
2023/05/04 11:37:28;;;;;;;;;;;;;;;;;;5156163;27;1485;-47
2023/05/04 11:39:55;;;;;;;;;;;;;;;;;;5155945;27;2029;-39
2023/05/04 11:42:23;;;;;;;;;;;;;;;;;;5156112;27;2114;-40
2023/05/04 11:44:51;;;;;;;;;;;;;;;;;;5155889;27;1945;-40
2023/05/04 11:47:18;;;;;;;;;;;;;;;;;;5155824;27;1946;-50
2023/05/04 11:49:46;;;;;;;;;;;;;;;;;;5155711;27;1778;-39
2023/05/04 11:52:13;;;;;;;;;;;;;;;;;;5155470;27;2076;-39
2023/05/04 11:54:41;;;;;;;;;;;;;;;;;;5170712;27;2007;-39
2023/05/04 11:57:08;;;;;;;;;;;;;;;;;;5176505;27;2099;-39
2023/05/04 11:59:35;;;;;;;;;;;;;;;;;;5176741;27;1943;-39
2023/05/04 12:02:02;;;;;;;;;;;;;;;;;;5176567;27;1670;-41
2023/05/04 12:04:30;;;;;;;;;;;;;;;;;;5176478;27;2081;-39
2023/05/04 12:06:58;;;;;;;;;;;;;;;;;;5176539;27;1939;-39
2023/05/04 12:09:27;;;;;;;;;;;;;;;;;;5176337;27;2009;-39
2023/05/04 12:11:57;;;;;;;;;;;;;;;;;;5176126;27;1927;-39
2023/05/04 12:14:27;;;;;;;;;;;;;;;;;;5176110;27;1827;-39
2023/05/04 12:16:56;;;;;;;;;;;;;;;;;;5176177;27;2039;-39
2023/05/04 12:19:23;;;;;;;;;;;;;;;;;;5175979;27;1911;-40
2023/05/04 12:21:56;;;;;;;;;;;;;;;;;;5176037;27;1942;-40
2023/05/04 12:24:25;;;;;;;;;;;;;;;;;;5176017;27;1883;-39
2023/05/04 12:26:52;;;;;;;;;;;;;;;;;;5175645;27;1988;-39
2023/05/04 12:29:20;;;;;;;;;;;;;;;;;;5174503;27;2057;-47
2023/05/04 12:31:47;;;;;;;;;;;;;;;;;;5175748;27;2245;-39
2023/05/04 12:34:14;;;;;;;;;;;;;;;;;;5175759;27;1930;-52
2023/05/04 12:36:43;;;;;;;;;;;;;;;;;;5175949;27;1945;-45
2023/05/04 12:39:10;;;;;;;;;;;;;;;;;;5157086;27;2165;-39
2023/05/04 12:41:37;;;;;;;;;;;;;;;;;;5175954;27;1784;-39
2023/05/04 12:44:07;;;;;;;;;;;;;;;;;;5176091;27;1825;-40
2023/05/04 12:46:34;;;;;;;;;;;;;;;;;;5175402;27;2029;-38
2023/05/04 12:49:02;;;;;;;;;;;;;;;;;;5175375;27;1710;-39
2023/05/04 12:51:30;;;;;;;;;;;;;;;;;;5175211;27;1954;-51
2023/05/04 12:53:58;;;;;;;;;;;;;;;;;;5166069;27;2173;-40
2023/05/04 12:56:25;;;;;;;;;;;;;;;;;;5154520;27;1825;-38
2023/05/04 12:58:52;;;;;;;;;;;;;;;;;;5154186;27;1924;-39
2023/05/04 13:01:19;;;;;;;;;;;;;;;;;;5136034;27;1950;-41
2023/05/04 13:03:47;;;;;;;;;;;;;;;;;;5154377;27;1665;-39
2023/05/04 13:06:14;;;;;;;;;;;;;;;;;;5154000;27;1897;-39
2023/05/04 13:08:41;;;;;;;;;;;;;;;;;;5154227;27;1827;-46
2023/05/04 13:11:08;;;;;;;;;;;;;;;;;;5154122;27;1787;-43
2023/05/04 13:13:36;;;;;;;;;;;;;;;;;;5153976;27;2022;-38
2023/05/04 13:16:04;;;;;;;;;;;;;;;;;;5153978;27;1921;-41
2023/05/04 13:18:32;;;;;;;;;;;;;;;;;;5153876;27;1516;-40
2023/05/04 13:20:59;;;;;;;;;;;;;;;;;;5154070;27;2037;-39
2023/05/04 13:23:26;;;;;;;;;;;;;;;;;;5154001;27;2046;-39
2023/05/04 13:25:53;;;;;;;;;;;;;;;;;;5153755;27;2375;-39
2023/05/04 13:28:20;;;;;;;;;;;;;;;;;;5153786;27;2059;-39
2023/05/04 13:30:47;;;;;;;;;;;;;;;;;;5153824;27;1928;-40
2023/05/04 13:33:18;;;;;;;;;;;;;;;;;;5153493;27;1915;-39
2023/05/04 13:35:56;;;;;;;;;;;;;;;;;;5153634;27;1459;-40
2023/05/04 13:38:24;;;;;;;;;;;;;;;;;;5153570;27;1927;-42
2023/05/04 13:40:51;;;;;;;;;;;;;;;;;;5153562;27;2083;-40
2023/05/04 13:43:18;;;;;;;;;;;;;;;;;;5153936;27;2410;-39
2023/05/04 13:45:45;;;;;;;;;;;;;;;;;;5153513;27;2059;-51
2023/05/04 13:48:13;;;;;;;;;;;;;;;;;;5153562;27;2067;-52
2023/05/04 13:50:40;;;;;;;;;;;;;;;;;;5153812;27;2046;-49
2023/05/04 13:53:11;;;;;;;;;;;;;;;;;;5155320;27;1776;-41
2023/05/04 13:55:38;;;;;;;;;;;;;;;;;;5174078;27;1990;-40
2023/05/04 13:58:08;;;;;;;;;;;;;;;;;;5174342;27;1896;-44
2023/05/04 14:00:35;;;;;;;;;;;;;;;;;;5173860;27;2021;-43
2023/05/04 14:03:03;;;;;;;;;;;;;;;;;;5173964;27;1964;-51
2023/05/04 14:05:34;;;;;;;;;;;;;;;;;;5173973;27;2000;-40
2023/05/04 14:08:01;;;;;;;;;;;;;;;;;;5173930;27;1697;-51
2023/05/04 14:10:28;;;;;;;;;;;;;;;;;;5174058;27;1902;-43
2023/05/04 14:12:56;;;;;;;;;;;;;;;;;;5173806;27;1852;-53
2023/05/04 14:15:23;;;;;;;;;;;;;;;;;;5173638;27;1951;-52
2023/05/04 14:17:50;;;;;;;;;;;;;;;;;;5174127;27;2060;-52
2023/05/04 14:20:17;;;;;;;;;;;;;;;;;;5173770;27;1980;-40
2023/05/04 14:22:44;;;;;;;;;;;;;;;;;;5173702;27;1909;-40
2023/05/04 14:25:12;;;;;;;;;;;;;;;;;;5174285;27;2047;-53
2023/05/04 14:27:42;;;;;;;;;;;;;;;;;;5173697;27;2160;-42
2023/05/04 14:30:09;;;;;;;;;;;;;;;;;;5155107;27;1960;-39
2023/05/04 14:32:36;;;;;;;;;;;;;;;;;;5173572;27;1891;-40
2023/05/04 14:35:08;;;;;;;;;;;;;;;;;;5173512;27;2030;-41
2023/05/04 14:37:37;;;;;;;;;;;;;;;;;;5173637;27;1913;-41
2023/05/04 14:40:05;;;;;;;;;;;;;;;;;;5173597;27;2160;-40
2023/05/04 14:42:32;;;;;;;;;;;;;;;;;;5173398;27;1947;-45
2023/05/04 14:44:59;;;;;;;;;;;;;;;;;;5173502;27;1964;-48
2023/05/04 14:47:27;;;;;;;;;;;;;;;;;;5173134;27;1911;-41
2023/05/04 14:49:54;;;;;;;;;;;;;;;;;;5173706;27;1885;-40
2023/05/04 14:52:22;;;;;;;;;;;;;;;;;;5173931;27;2002;-40
2023/05/04 14:54:50;;;;;;;;;;;;;;;;;;5161137;27;1976;-43
2023/05/04 14:57:17;;;;;;;;;;;;;;;;;;5156880;27;1990;-40
2023/05/04 14:59:44;;;;;;;;;;;;;;;;;;5156935;27;1965;-40
2023/05/04 15:02:12;;;;;;;;;;;;;;;;;;5157069;27;1915;-40
2023/05/04 15:04:39;;;;;;;;;;;;;;;;;;5156794;27;2127;-54
2023/05/04 15:07:07;;;;;;;;;;;;;;;;;;5156690;27;2065;-40
2023/05/04 15:09:34;;;;;;;;;;;;;;;;;;5156230;27;1793;-40
2023/05/04 15:12:02;;;;;;;;;;;;;;;;;;5156134;27;1823;-40
2023/05/04 15:14:29;;;;;;;;;;;;;;;;;;5156552;27;1932;-44
2023/05/04 15:16:56;;;;;;;;;;;;;;;;;;5156281;27;1919;-45
2023/05/04 15:19:23;;;;;;;;;;;;;;;;;;5156426;27;1994;-44
2023/05/04 15:21:51;;;;;;;;;;;;;;;;;;5156345;27;2069;-41
2023/05/04 15:24:18;;;;;;;;;;;;;;;;;;5156617;27;2107;-40
2023/05/04 15:26:46;;;;;;;;;;;;;;;;;;5156462;27;1854;-45
2023/05/04 15:29:13;;;;;;;;;;;;;;;;;;5156119;27;1962;-45
2023/05/04 15:31:40;;;;;;;;;;;;;;;;;;5156096;27;2181;-42
2023/05/04 15:34:08;;;;;;;;;;;;;;;;;;5155907;27;1877;-46
2023/05/04 15:36:35;;;;;;;;;;;;;;;;;;5155753;27;2033;-43
2023/05/04 15:39:04;;;;;;;;;;;;;;;;;;5156241;27;2153;-47
2023/05/04 15:41:31;;;;;;;;;;;;;;;;;;5156081;27;1909;-40
2023/05/04 15:43:58;;;;;;;;;;;;;;;;;;5155935;27;1944;-40
2023/05/04 15:46:25;;;;;;;;;;;;;;;;;;5155882;27;1856;-40
2023/05/04 15:48:53;;;;;;;;;;;;;;;;;;5155660;27;2239;-39
2023/05/04 15:51:20;;;;;;;;;;;;;;;;;;5155787;27;1889;-40
2023/05/04 15:53:47;;;;;;;;;;;;;;;;;;5163096;27;1335;-40
2023/05/04 15:56:15;;;;;;;;;;;;;;;;;;5176541;27;2540;-43
2023/05/04 15:58:47;;;;;;;;;;;;;;;;;;5176453;27;1726;-40
2023/05/04 16:01:14;;;;;;;;;;;;;;;;;;5176387;27;2017;-41
2023/05/04 16:03:41;;;;;;;;;;;;;;;;;;5176382;27;2012;-40
2023/05/04 16:06:09;;;;;;;;;;;;;;;;;;5176481;27;1920;-44
2023/05/04 16:08:36;;;;;;;;;;;;;;;;;;5176294;27;2064;-42
2023/05/04 16:11:03;;;;;;;;;;;;;;;;;;5176167;27;1873;-46
2023/05/04 16:13:31;;;;;;;;;;;;;;;;;;5176393;27;2003;-43
2023/05/04 16:15:58;;;;;;;;;;;;;;;;;;5176206;27;1865;-39
2023/05/04 16:18:25;;;;;;;;;;;;;;;;;;5175921;27;1843;-39
2023/05/04 16:20:53;;;;;;;;;;;;;;;;;;5176318;27;2133;-51
2023/05/04 16:23:20;;;;;;;;;;;;;;;;;;5176081;27;1988;-40
2023/05/04 16:25:47;;;;;;;;;;;;;;;;;;5176174;27;1742;-40
2023/05/04 16:28:15;;;;;;;;;;;;;;;;;;5176072;27;2509;-39
2023/05/04 16:30:44;;;;;;;;;;;;;;;;;;5175566;27;2265;-39
2023/05/04 16:33:11;;;;;;;;;;;;;;;;;;5175859;27;1443;-40
2023/05/04 16:35:38;;;;;;;;;;;;;;;;;;5175834;27;2062;-40
2023/05/04 16:38:05;;;;;;;;;;;;;;;;;;5175767;27;2031;-42
2023/05/04 16:40:33;;;;;;;;;;;;;;;;;;5175590;27;2025;-40
2023/05/04 16:43:00;;;;;;;;;;;;;;;;;;5175903;27;2118;-40
2023/05/04 16:45:30;;;;;;;;;;;;;;;;;;5175242;27;1952;-39
2023/05/04 16:47:58;;;;;;;;;;;;;;;;;;5175610;27;2107;-43
2023/05/04 16:50:25;;;;;;;;;;;;;;;;;;5175847;27;2144;-40
2023/05/04 16:52:52;;;;;;;;;;;;;;;;;;5175570;27;2149;-49
2023/05/04 16:55:19;;;;;;;;;;;;;;;;;;5154667;27;1969;-44
2023/05/04 16:57:46;;;;;;;;;;;;;;;;;;5154371;27;1814;-39
2023/05/04 17:00:13;;;;;;;;;;;;;;;;;;5154282;27;1978;-42
2023/05/04 17:02:41;;;;;;;;;;;;;;;;;;5154664;27;2229;-42
2023/05/04 17:05:09;;;;;;;;;;;;;;;;;;5154559;27;2272;-53
2023/05/04 17:07:38;;;;;;;;;;;;;;;;;;5154141;27;2032;-41
2023/05/04 17:10:06;;;;;;;;;;;;;;;;;;5154268;27;2056;-48